Time;durP1;ratioP1;P1;durP2;ratioP2;P2;SDS_P1;SDS_P2;PMS_P1;PMS_P2;Temp;Humidity;BMP_temperature;BMP_pressure;BME280_temperature;BME280_humidity;BME280_pressure;Samples;Min_cycle;Max_cycle;Signal;HPM_P1;HPM_P2
2021/12/13 00:01:16;;;;;;;7.03;6.33;;;;;;;14.32;78.77;101815.81;5041531;28;20413;-63
2021/12/13 00:03:50;;;;;;;22.03;12.77;;;;;;;15.46;70.55;101809.88;5029587;28;20436;-63
2021/12/13 00:06:18;;;;;;;55.93;24.33;;;;;;;15.02;69.49;101803.44;5027816;28;20411;-62
2021/12/13 00:08:48;;;;;;;51.13;26.10;;;;;;;12.67;75.37;101821.22;5050428;28;20481;-71
2021/12/13 00:11:19;;;;;;;45.37;25.63;;;;;;;11.36;80.32;101834.97;5020403;28;20614;-70
2021/12/13 00:14:10;;;;;;;36.90;22.83;;;;;;;10.75;82.76;101837.81;5017675;28;20414;-70
2021/12/13 00:16:38;;;;;;;37.80;22.30;;;;;;;10.51;84.86;101831.94;5019935;28;20434;-72
2021/12/13 00:19:09;;;;;;;48.00;22.63;;;;;;;10.53;85.39;101835.47;5030077;28;20555;-75
2021/12/13 00:21:44;;;;;;;48.57;23.87;;;;;;;10.58;85.05;101832.16;5028021;28;20734;-72
2021/12/13 00:24:15;;;;;;;41.50;23.77;;;;;;;10.68;85.00;101838.50;5039004;28;20438;-70
2021/12/13 00:26:45;;;;;;;42.23;23.57;;;;;;;10.35;86.01;101839.34;5024408;28;20444;-72
2021/12/13 00:29:20;;;;;;;33.87;21.47;;;;;;;10.38;85.77;101841.16;5036160;28;20480;-70
2021/12/13 00:31:58;;;;;;;49.03;22.97;;;;;;;10.36;86.39;101838.47;5035249;28;20435;-71
2021/12/13 00:34:30;;;;;;;51.47;24.23;;;;;;;10.47;85.88;101843.13;5031576;28;20663;-74
2021/12/13 00:37:10;;;;;;;39.90;23.63;;;;;;;10.42;86.35;101840.41;5018471;28;20528;-70
2021/12/13 00:39:45;;;;;;;53.80;26.10;;;;;;;10.42;86.29;101838.66;5021296;28;20445;-71
2021/12/13 00:42:11;;;;;;;43.73;24.37;;;;;;;10.42;86.30;101843.00;5030589;28;22357;-70
2021/12/13 00:44:40;;;;;;;45.13;25.13;;;;;;;10.42;86.51;101843.88;5036797;28;20438;-71
2021/12/13 00:47:09;;;;;;;65.70;26.87;;;;;;;10.31;86.35;101850.50;5038053;28;20434;-74
2021/12/13 00:49:38;;;;;;;39.97;24.10;;;;;;;10.16;88.04;101850.94;5036950;28;20418;-73
2021/12/13 00:52:06;;;;;;;51.80;25.10;;;;;;;10.36;87.09;101854.13;5036721;28;20469;-73
2021/12/13 00:54:38;;;;;;;40.63;23.20;;;;;;;10.39;86.25;101859.44;5019823;28;20461;-73
2021/12/13 00:57:03;;;;;;;44.50;24.80;;;;;;;10.52;86.50;101857.16;5017308;28;20414;-73
2021/12/13 00:59:39;;;;;;;54.90;25.40;;;;;;;10.51;85.61;101858.00;5017922;28;20886;-74
2021/12/13 01:02:09;;;;;;;39.03;21.70;;;;;;;10.32;86.74;101856.56;5036688;28;20178;-73
2021/12/13 01:04:59;;;;;;;37.23;21.70;;;;;;;10.50;86.24;101856.22;5041472;28;20674;-74
2021/12/13 01:07:33;;;;;;;41.90;22.20;;;;;;;10.31;86.32;101858.31;5041163;28;20380;-74
2021/12/13 01:10:07;;;;;;;38.80;21.17;;;;;;;10.43;86.35;101858.69;5036534;28;20783;-75
2021/12/13 01:12:33;;;;;;;42.17;21.23;;;;;;;10.40;85.94;101860.31;5021750;28;20417;-71
2021/12/13 01:15:05;;;;;;;41.03;21.83;;;;;;;10.33;87.00;101859.22;5046742;28;20504;-73
2021/12/13 01:17:56;;;;;;;41.20;20.43;;;;;;;10.30;86.98;101864.34;5060747;28;20205;-71
2021/12/13 01:20:44;;;;;;;39.70;21.47;;;;;;;10.58;85.92;101863.44;5061203;28;20418;-72
2021/12/13 01:23:18;;;;;;;35.77;18.80;;;;;;;10.49;86.61;101864.91;5061076;28;20396;-73
2021/12/13 01:25:49;;;;;;;34.60;18.80;;;;;;;10.23;87.60;101878.06;5061013;28;20391;-71
2021/12/13 01:28:20;;;;;;;32.83;19.10;;;;;;;10.39;87.48;101877.69;5029908;28;20454;-72
2021/12/13 01:30:50;;;;;;;36.80;18.90;;;;;;;10.26;87.88;101880.75;5021382;28;20504;-77
2021/12/13 01:33:17;;;;;;;31.63;17.80;;;;;;;10.32;87.86;101882.63;5060927;28;20415;-71
2021/12/13 01:35:45;;;;;;;30.40;16.20;;;;;;;10.42;86.80;101874.28;5060954;28;20652;-74
2021/12/13 01:38:21;;;;;;;39.80;19.60;;;;;;;10.39;87.59;101880.28;5044868;28;20762;-73
2021/12/13 01:40:52;;;;;;;40.93;18.83;;;;;;;10.20;88.28;101885.75;5040015;28;20417;-73
2021/12/13 01:43:25;;;;;;;35.87;18.47;;;;;;;10.47;87.65;101883.09;5040580;28;20682;-73
2021/12/13 01:45:52;;;;;;;40.30;17.67;;;;;;;10.34;87.82;101889.66;5040050;28;20670;-72
2021/12/13 01:48:24;;;;;;;30.97;16.37;;;;;;;10.27;88.15;101882.50;5040143;28;20465;-71
2021/12/13 01:51:03;;;;;;;30.20;17.27;;;;;;;10.21;88.32;101884.94;5040249;28;20435;-71
2021/12/13 01:53:38;;;;;;;29.57;15.43;;;;;;;10.26;88.54;101886.81;5040530;28;20387;-76
2021/12/13 01:56:23;;;;;;;31.67;16.73;;;;;;;10.37;88.43;101881.09;5040475;28;20394;-72
2021/12/13 01:58:50;;;;;;;32.43;16.40;;;;;;;10.35;88.44;101882.75;5037493;28;20494;-72
2021/12/13 02:01:21;;;;;;;33.47;17.50;;;;;;;10.31;88.71;101886.97;5046174;28;20487;-71
2021/12/13 02:04:02;;;;;;;32.20;17.73;;;;;;;10.03;90.36;101880.06;5039296;28;20427;-72
2021/12/13 02:06:40;;;;;;;39.83;17.27;;;;;;;10.09;90.32;101878.53;5026752;28;20436;-72
2021/12/13 02:09:08;;;;;;;29.93;17.53;;;;;;;10.02;90.95;101876.56;5020660;28;20396;-74
2021/12/13 02:11:34;;;;;;;46.90;17.90;;;;;;;10.23;89.79;101876.31;5020143;28;20425;-73
2021/12/13 02:14:08;;;;;;;40.93;17.40;;;;;;;9.96;91.59;101873.78;5019822;28;20814;-72
2021/12/13 02:19:31;;;;;;;34.20;17.60;;;;;;;10.32;89.93;101880.91;5020221;28;20598;-74
2021/12/13 02:22:21;;;;;;;38.83;17.43;;;;;;;10.35;89.57;101883.66;5019994;28;20503;-72
2021/12/13 02:24:48;;;;;;;27.07;15.47;;;;;;;10.37;89.63;101879.34;5020260;28;20405;-71
2021/12/13 02:27:14;;;;;;;32.23;16.30;;;;;;;10.22;89.63;101891.91;5020056;28;20418;-73
2021/12/13 02:29:42;;;;;;;26.27;13.73;;;;;;;10.13;90.93;101887.28;5052186;28;20444;-74
2021/12/13 02:32:09;;;;;;;26.50;14.63;;;;;;;10.28;90.43;101886.88;5020183;28;20198;-73
2021/12/13 02:34:41;;;;;;;28.17;13.20;;;;;;;10.39;90.52;101889.81;5020434;28;20420;-70
2021/12/13 02:37:07;;;;;;;24.83;13.47;;;;;;;10.54;89.39;101891.97;5026151;28;20486;-69
2021/12/13 02:39:44;;;;;;;23.77;11.50;;;;;;;10.39;89.47;101895.94;5039194;28;20742;-68
2021/12/13 02:42:13;;;;;;;22.03;12.63;;;;;;;10.27;90.20;101901.63;5048533;28;20284;-69
2021/12/13 02:44:48;;;;;;;23.33;12.37;;;;;;;10.26;90.59;101899.84;5060214;28;20505;-68
2021/12/13 02:47:36;;;;;;;20.47;12.17;;;;;;;10.43;90.16;101900.41;5060104;28;20399;-69
2021/12/13 02:50:09;;;;;;;24.60;13.17;;;;;;;10.37;90.35;101900.22;5060261;28;20829;-68
2021/12/13 02:52:34;;;;;;;27.47;13.93;;;;;;;10.65;88.71;101906.22;5039605;28;20444;-69
2021/12/13 02:55:04;;;;;;;23.53;12.10;;;;;;;10.51;88.85;101904.94;5020012;28;20435;-67
2021/12/13 02:57:34;;;;;;;23.50;13.33;;;;;;;10.37;89.80;101899.34;5022619;28;20642;-69
2021/12/13 03:00:11;;;;;;;21.93;13.60;;;;;;;10.56;88.92;101893.78;5022958;28;20472;-69
2021/12/13 03:02:39;;;;;;;29.27;15.20;;;;;;;10.43;89.58;101894.28;5054328;28;20429;-68
2021/12/13 03:05:11;;;;;;;37.50;15.57;;;;;;;10.70;89.52;101896.81;5020693;28;20400;-68
2021/12/13 03:07:42;;;;;;;26.23;13.53;;;;;;;10.64;89.18;101906.19;5022230;28;20409;-68
2021/12/13 03:10:12;;;;;;;25.87;13.70;;;;;;;10.81;88.51;101901.41;5024979;28;20832;-68
2021/12/13 03:12:37;;;;;;;25.20;14.00;;;;;;;10.82;88.24;101904.06;5019136;28;20399;-69
2021/12/13 03:15:07;;;;;;;27.07;15.47;;;;;;;10.56;89.82;101905.97;5019174;28;20418;-68
2021/12/13 03:18:01;;;;;;;25.13;12.70;;;;;;;10.47;90.32;101908.28;5021031;28;20202;-69
2021/12/13 03:21:02;;;;;;;29.77;14.07;;;;;;;10.65;89.44;101907.94;5028078;28;20487;-69
2021/12/13 03:24:22;;;;;;;24.63;13.00;;;;;;;10.61;90.10;101905.25;5019021;28;20406;-68
2021/12/13 03:27:18;;;;;;;25.03;12.80;;;;;;;10.94;89.27;101908.75;5039643;28;20432;-69
2021/12/13 03:29:50;;;;;;;19.57;11.40;;;;;;;10.71;89.11;101901.16;5057611;28;20391;-68
2021/12/13 03:32:16;;;;;;;26.63;12.37;;;;;;;10.96;88.85;101914.91;5025438;28;20505;-69
2021/12/13 03:34:54;;;;;;;23.50;13.17;;;;;;;10.75;89.09;101916.06;5018735;28;20492;-69
2021/12/13 03:37:23;;;;;;;20.70;11.20;;;;;;;10.76;89.37;101912.59;5017753;28;20392;-69
2021/12/13 03:39:59;;;;;;;28.30;12.97;;;;;;;10.57;90.51;101910.34;5018807;28;20895;-68
2021/12/13 03:42:29;;;;;;;23.70;11.47;;;;;;;10.81;89.63;101917.06;5018637;28;20408;-67
2021/12/13 03:44:58;;;;;;;25.30;13.90;;;;;;;10.74;90.36;101916.91;5018599;28;20540;-68
2021/12/13 03:47:34;;;;;;;23.03;11.90;;;;;;;10.74;89.84;101922.13;5017938;28;20803;-69
2021/12/13 03:50:06;;;;;;;26.23;13.37;;;;;;;10.94;89.27;101913.97;5018579;28;20416;-68
2021/12/13 03:52:31;;;;;;;22.80;13.30;;;;;;;11.03;88.80;101910.72;5018411;28;20548;-67
2021/12/13 03:54:59;;;;;;;24.93;13.77;;;;;;;11.31;87.33;101916.66;5018592;28;20687;-68
2021/12/13 03:57:25;;;;;;;20.30;12.00;;;;;;;10.76;90.02;101923.03;5018904;28;20189;-69
2021/12/13 03:59:51;;;;;;;26.83;13.33;;;;;;;10.73;89.47;101924.66;5018313;28;20408;-69
2021/12/13 04:02:30;;;;;;;27.00;15.00;;;;;;;10.87;89.43;101930.28;5018327;28;20410;-67
2021/12/13 04:04:59;;;;;;;28.70;13.67;;;;;;;11.05;88.73;101930.78;5018417;28;20206;-69
2021/12/13 04:07:31;;;;;;;25.60;13.80;;;;;;;10.85;89.07;101938.09;5019438;28;20512;-68
2021/12/13 04:10:00;;;;;;;24.93;13.00;;;;;;;10.59;91.34;101935.63;5038283;28;20473;-67
2021/12/13 04:12:37;;;;;;;21.80;12.13;;;;;;;11.08;89.06;101938.72;5038021;28;20407;-68
2021/12/13 04:15:17;;;;;;;23.60;13.17;;;;;;;10.74;90.60;101936.88;5038178;28;20422;-68
2021/12/13 04:17:56;;;;;;;26.37;13.20;;;;;;;10.58;92.23;101938.16;5037226;28;20442;-68
2021/12/13 04:20:34;;;;;;;26.93;13.83;;;;;;;10.78;91.16;101939.63;5038176;28;20425;-69
2021/12/13 04:23:05;;;;;;;30.40;14.60;;;;;;;11.00;89.35;101937.63;5037860;28;20686;-68
2021/12/13 04:25:34;;;;;;;26.40;13.83;;;;;;;11.01;90.22;101941.97;5038265;28;20421;-67
2021/12/13 04:28:39;;;;;;;25.77;13.17;;;;;;;11.10;89.38;101938.75;5038061;28;20425;-67
2021/12/13 04:31:08;;;;;;;24.33;13.20;;;;;;;11.06;88.78;101940.38;5037582;28;20403;-68
2021/12/13 04:33:38;;;;;;;28.73;14.20;;;;;;;10.95;89.78;101939.22;5037146;28;20421;-70
2021/12/13 04:36:12;;;;;;;27.57;13.50;;;;;;;10.94;89.32;101943.53;5038133;28;20424;-69
2021/12/13 04:38:50;;;;;;;25.53;13.83;;;;;;;11.00;89.56;101945.44;5041956;28;20886;-68
2021/12/13 04:41:31;;;;;;;22.40;12.80;;;;;;;10.81;90.05;101945.75;5041656;28;20463;-67
2021/12/13 04:44:03;;;;;;;26.90;13.33;;;;;;;10.82;89.56;101957.97;5041946;28;20410;-69
2021/12/13 04:46:30;;;;;;;26.47;14.40;;;;;;;10.76;91.20;101959.56;5041083;28;20436;-68
2021/12/13 04:48:59;;;;;;;24.07;12.77;;;;;;;10.78;90.49;101967.44;5041576;28;20830;-69
2021/12/13 04:51:28;;;;;;;26.03;12.23;;;;;;;10.61;92.07;101954.78;5039888;28;20530;-70
2021/12/13 04:53:58;;;;;;;22.77;14.00;;;;;;;11.04;90.58;101960.34;5041408;28;20774;-69
2021/12/13 04:56:28;;;;;;;18.70;11.70;;;;;;;11.17;88.93;101958.94;5040795;28;20458;-69
2021/12/13 04:58:54;;;;;;;26.10;13.33;;;;;;;11.00;89.67;101957.59;5041277;28;20484;-68
2021/12/13 05:01:21;;;;;;;23.00;13.07;;;;;;;11.36;87.69;101965.53;5041086;28;20421;-70
2021/12/13 05:04:00;;;;;;;24.40;14.50;;;;;;;11.32;88.90;101968.03;5041126;28;20705;-69
2021/12/13 05:06:34;;;;;;;31.67;14.83;;;;;;;11.37;87.99;101969.03;5041334;28;20410;-68
2021/12/13 05:09:03;;;;;;;31.07;16.27;;;;;;;11.35;87.81;101969.00;5027325;28;20820;-68
2021/12/13 05:11:41;;;;;;;42.70;17.17;;;;;;;11.41;87.01;101971.75;5021383;28;20396;-69
2021/12/13 05:14:07;;;;;;;45.43;17.93;;;;;;;11.36;87.47;101975.09;5021363;28;20796;-68
2021/12/13 05:16:45;;;;;;;42.53;18.17;;;;;;;11.16;87.90;101974.56;5021351;28;20441;-68
2021/12/13 05:19:15;;;;;;;29.80;15.90;;;;;;;11.06;88.98;101984.75;5021269;28;20214;-68
2021/12/13 05:21:47;;;;;;;28.73;14.33;;;;;;;11.51;87.01;101982.44;5021101;28;20480;-67
2021/12/13 05:24:15;;;;;;;27.23;15.33;;;;;;;11.15;89.29;101984.13;5021279;28;20715;-68
2021/12/13 05:26:54;;;;;;;26.53;14.13;;;;;;;11.14;88.86;101978.88;5021685;28;20690;-68
2021/12/13 05:29:24;;;;;;;26.13;13.83;;;;;;;11.19;88.48;101979.84;5021298;28;20793;-69
2021/12/13 05:31:55;;;;;;;26.90;14.97;;;;;;;11.34;87.62;101982.88;5021033;28;20396;-68
2021/12/13 05:34:21;;;;;;;29.73;15.10;;;;;;;11.09;88.47;101979.59;5020931;28;20416;-68
2021/12/13 05:36:55;;;;;;;27.33;15.03;;;;;;;11.23;88.11;101977.38;5021101;28;20384;-68
2021/12/13 05:39:21;;;;;;;26.30;14.17;;;;;;;11.16;88.61;101979.78;5020976;28;20436;-68
2021/12/13 05:41:58;;;;;;;27.47;14.50;;;;;;;11.16;88.45;101985.00;5021088;28;20888;-68
2021/12/13 05:44:32;;;;;;;26.77;14.93;;;;;;;11.21;88.18;101983.41;5036524;28;20188;-68
2021/12/13 05:46:58;;;;;;;26.63;14.30;;;;;;;11.27;87.96;101983.53;5027467;28;20414;-68
2021/12/13 05:49:30;;;;;;;25.13;14.27;;;;;;;11.22;87.89;101987.78;5058925;28;20460;-69
2021/12/13 05:52:13;;;;;;;27.13;15.17;;;;;;;10.98;88.82;101986.25;5060164;28;20499;-68
2021/12/13 05:54:44;;;;;;;26.70;14.70;;;;;;;11.33;87.64;101994.16;5060344;28;20387;-68
2021/12/13 05:57:18;;;;;;;29.77;15.87;;;;;;;11.36;87.83;101999.47;5059954;28;20506;-69
2021/12/13 06:00:21;;;;;;;27.53;14.33;;;;;;;11.09;88.63;101995.25;5038327;28;20436;-68
2021/12/13 06:03:05;;;;;;;27.77;15.70;;;;;;;11.26;88.17;101998.34;5021488;28;20457;-68
2021/12/13 06:05:37;;;;;;;26.53;14.17;;;;;;;11.48;87.53;102006.75;5028647;28;20505;-68
2021/12/13 06:08:10;;;;;;;25.37;14.63;;;;;;;11.31;87.60;102003.66;5058410;28;20418;-68
2021/12/13 06:10:46;;;;;;;25.13;14.40;;;;;;;11.18;87.95;102004.22;5037719;28;20472;-69
2021/12/13 06:13:33;;;;;;;27.60;13.67;;;;;;;11.42;87.67;102004.88;5046881;28;20493;-68
2021/12/13 06:15:58;;;;;;;25.37;13.90;;;;;;;11.17;88.02;102007.66;5026512;28;20439;-68
2021/12/13 06:18:31;;;;;;;28.07;14.40;;;;;;;11.40;87.52;102016.09;5035233;28;20465;-68
2021/12/13 06:21:32;;;;;;;27.13;14.50;;;;;;;11.26;87.49;102010.53;5049604;28;20191;-68
2021/12/13 06:23:58;;;;;;;24.80;13.90;;;;;;;11.22;88.48;102016.50;5059144;28;20848;-67
2021/12/13 06:26:28;;;;;;;26.43;15.03;;;;;;;11.36;88.02;102012.53;5059959;28;20416;-68
2021/12/13 06:28:59;;;;;;;25.30;13.77;;;;;;;11.33;87.64;102009.84;5059809;28;20170;-68
2021/12/13 06:31:35;;;;;;;28.43;15.90;;;;;;;11.25;88.16;102017.44;5059330;28;20485;-68
2021/12/13 06:34:05;;;;;;;26.50;14.60;;;;;;;11.37;87.51;102018.66;5032907;28;20479;-68
2021/12/13 06:36:52;;;;;;;31.23;16.80;;;;;;;11.38;87.15;102025.59;5019869;28;20411;-69
2021/12/13 06:39:28;;;;;;;27.23;16.10;;;;;;;11.33;88.42;102030.72;5019900;28;20502;-69
2021/12/13 06:42:02;;;;;;;30.33;15.50;;;;;;;11.26;88.35;102034.00;5019481;28;20654;-68
2021/12/13 06:44:37;;;;;;;31.03;15.27;;;;;;;11.48;87.51;102030.25;5019621;28;20424;-69
2021/12/13 06:47:16;;;;;;;33.93;16.73;;;;;;;11.41;87.49;102034.41;5019661;28;20410;-69
2021/12/13 06:49:48;;;;;;;31.20;16.10;;;;;;;11.46;87.16;102035.44;5020307;28;20403;-68
2021/12/13 06:52:13;;;;;;;35.37;17.40;;;;;;;11.35;87.90;102038.59;5019170;28;20460;-68
2021/12/13 06:54:47;;;;;;;33.37;17.83;;;;;;;11.38;87.65;102044.78;5038909;28;20459;-68
2021/12/13 06:57:19;;;;;;;31.07;16.17;;;;;;;11.31;88.10;102045.44;5059632;28;20244;-68
2021/12/13 07:00:00;;;;;;;35.83;17.10;;;;;;;11.54;87.35;102047.81;5059168;28;20391;-68
2021/12/13 07:02:28;;;;;;;33.47;17.20;;;;;;;11.57;86.78;102046.16;5058895;28;20390;-69
2021/12/13 07:04:58;;;;;;;34.70;16.73;;;;;;;11.60;86.61;102053.19;5058083;28;20506;-68
2021/12/13 07:07:29;;;;;;;30.03;16.20;;;;;;;11.51;86.89;102056.44;5048668;28;20414;-68
2021/12/13 07:09:58;;;;;;;24.37;14.33;;;;;;;11.66;86.23;102053.34;5051113;28;20418;-68
2021/12/13 07:12:27;;;;;;;25.93;15.17;;;;;;;11.55;87.35;102057.41;5051127;28;20440;-67
2021/12/13 07:14:52;;;;;;;24.13;15.20;;;;;;;11.37;88.46;102068.25;5038859;28;20397;-68
2021/12/13 07:17:26;;;;;;;26.73;14.73;;;;;;;11.42;87.35;102064.91;5035511;28;20431;-68
2021/12/13 07:19:51;;;;;;;25.23;14.13;;;;;;;11.54;87.40;102071.31;5036478;28;20198;-69
2021/12/13 07:22:25;;;;;;;25.47;15.30;;;;;;;11.68;86.96;102072.56;5056230;28;20477;-69
2021/12/13 07:24:54;;;;;;;25.07;15.20;;;;;;;11.23;88.75;102073.97;5052288;28;20548;-68
2021/12/13 07:27:28;;;;;;;26.33;15.50;;;;;;;11.63;86.71;102068.94;5057735;28;20420;-68
2021/12/13 07:29:57;;;;;;;31.70;16.67;;;;;;;11.46;88.43;102074.59;5058236;28;20459;-68
2021/12/13 07:32:28;;;;;;;27.97;15.97;;;;;;;11.23;88.30;102083.50;5058396;28;20479;-68
2021/12/13 07:35:05;;;;;;;29.60;16.23;;;;;;;11.50;87.56;102078.19;5056888;28;20410;-67
2021/12/13 07:37:52;;;;;;;29.30;15.97;;;;;;;11.33;88.46;102085.56;5038527;28;20466;-69
2021/12/13 07:40:26;;;;;;;28.67;16.57;;;;;;;11.56;87.80;102088.78;5038385;28;20383;-68
2021/12/13 07:43:00;;;;;;;29.40;16.40;;;;;;;11.68;87.14;102093.47;5038287;28;20442;-67
2021/12/13 07:45:49;;;;;;;31.20;18.00;;;;;;;11.10;88.95;102091.00;5050509;28;20447;-67
2021/12/13 07:48:35;;;;;;;31.57;17.97;;;;;;;11.31;88.43;102088.94;5038073;28;20383;-67
2021/12/13 07:51:11;;;;;;;30.80;16.60;;;;;;;11.15;89.36;102082.41;5052254;28;20456;-67
2021/12/13 07:53:45;;;;;;;28.30;16.30;;;;;;;11.28;88.54;102092.34;5058294;28;20412;-68
2021/12/13 07:56:17;;;;;;;24.40;14.80;;;;;;;11.07;89.40;102096.13;5058253;28;20434;-68
2021/12/13 07:58:45;;;;;;;25.57;14.60;;;;;;;10.84;90.56;102102.38;5057454;28;20513;-68
2021/12/13 08:01:14;;;;;;;21.80;14.50;;;;;;;11.11;89.62;102094.50;5058005;28;20415;-68
2021/12/13 08:03:51;;;;;;;23.40;14.20;;;;;;;11.59;87.40;102090.59;5039415;28;20414;-67
2021/12/13 08:06:17;;;;;;;27.67;16.00;;;;;;;11.47;88.48;102101.59;5038158;28;20395;-67
2021/12/13 08:08:53;;;;;;;24.90;15.30;;;;;;;11.17;88.92;102109.44;5038070;28;20423;-67
2021/12/13 08:11:36;;;;;;;23.97;15.40;;;;;;;11.22;89.21;102111.34;5037542;28;20177;-67
2021/12/13 08:14:02;;;;;;;27.27;15.90;;;;;;;11.53;87.48;102112.22;5033432;28;20426;-68
2021/12/13 08:16:30;;;;;;;24.30;15.50;;;;;;;11.51;87.34;102115.63;5027318;28;20404;-68
2021/12/13 08:19:05;;;;;;;24.80;14.73;;;;;;;11.59;88.03;102109.75;5037612;28;20205;-68
2021/12/13 08:21:37;;;;;;;23.77;15.37;;;;;;;11.62;87.66;102111.56;5041020;28;20426;-67
2021/12/13 08:24:03;;;;;;;21.27;14.50;;;;;;;11.51;87.97;102118.25;5037435;28;20668;-68
2021/12/13 08:26:34;;;;;;;23.70;13.00;;;;;;;11.79;86.38;102114.66;5040469;28;20421;-67
2021/12/13 08:29:03;;;;;;;23.00;14.00;;;;;;;11.39;87.65;102118.78;5051509;28;20276;-67
2021/12/13 08:31:33;;;;;;;24.87;14.10;;;;;;;11.39;88.09;102124.91;5042019;28;20522;-67
2021/12/13 08:34:05;;;;;;;20.47;13.63;;;;;;;11.39;88.79;102124.91;5045486;28;20421;-68
2021/12/13 08:36:34;;;;;;;22.50;14.37;;;;;;;11.69;87.65;102123.97;5039601;28;20422;-68
2021/12/13 08:39:05;;;;;;;22.80;14.23;;;;;;;11.59;87.39;102121.94;5019283;28;20453;-68
2021/12/13 08:41:44;;;;;;;22.10;14.30;;;;;;;11.63;87.05;102134.25;5019097;28;20517;-67
2021/12/13 08:44:12;;;;;;;23.20;15.33;;;;;;;11.77;86.58;102119.84;5048840;28;20433;-68
2021/12/13 08:46:46;;;;;;;23.50;15.07;;;;;;;11.75;87.08;102120.66;5030027;28;20579;-67
2021/12/13 08:49:40;;;;;;;22.60;15.60;;;;;;;12.04;85.76;102121.47;5017956;28;20417;-68
2021/12/13 08:52:24;;;;;;;24.03;15.57;;;;;;;12.01;85.75;102123.09;5031226;28;20431;-68
2021/12/13 08:55:05;;;;;;;24.57;16.60;;;;;;;11.89;85.54;102131.47;5029802;28;20396;-68
2021/12/13 08:57:40;;;;;;;24.30;16.23;;;;;;;11.98;85.34;102134.34;5040697;28;20433;-68
2021/12/13 09:00:32;;;;;;;25.30;16.20;;;;;;;11.72;86.21;102139.72;5029664;28;20416;-67
2021/12/13 09:02:59;;;;;;;25.83;16.00;;;;;;;11.76;86.41;102136.34;5031144;28;20400;-68
2021/12/13 09:05:36;;;;;;;23.47;16.03;;;;;;;11.74;86.47;102145.88;5025227;28;20412;-68
2021/12/13 09:08:13;;;;;;;26.87;16.83;;;;;;;11.85;86.51;102147.91;5031369;28;20427;-67
2021/12/13 09:10:58;;;;;;;24.70;15.17;;;;;;;11.90;85.92;102148.91;5030615;28;20428;-69
2021/12/13 09:13:47;;;;;;;22.43;14.80;;;;;;;11.80;85.82;102151.28;5041515;28;20483;-70
2021/12/13 09:16:18;;;;;;;26.57;16.50;;;;;;;11.86;85.80;102162.75;5037729;28;20434;-69
2021/12/13 09:18:44;;;;;;;21.83;16.00;;;;;;;11.92;86.05;102162.88;5026530;28;20479;-71
2021/12/13 09:21:09;;;;;;;22.43;15.53;;;;;;;11.86;86.08;102160.13;5045599;28;20444;-68
2021/12/13 09:23:49;;;;;;;22.20;14.80;;;;;;;11.79;86.28;102162.56;5039508;28;20301;-69
2021/12/13 09:26:22;;;;;;;24.30;16.70;;;;;;;11.85;85.67;102161.84;5041015;28;20191;-68
2021/12/13 09:28:52;;;;;;;25.70;15.73;;;;;;;12.12;84.98;102159.13;5036272;28;20395;-69
2021/12/13 09:31:28;;;;;;;24.83;17.10;;;;;;;12.07;84.69;102157.22;5032055;28;20425;-68
2021/12/13 09:34:00;;;;;;;24.57;16.30;;;;;;;11.92;85.23;102148.13;5040597;28;20836;-69
2021/12/13 09:36:29;;;;;;;22.60;14.93;;;;;;;12.02;85.07;102151.00;5035199;28;20403;-68
2021/12/13 09:39:04;;;;;;;26.63;16.10;;;;;;;12.05;84.86;102149.34;5025036;28;20440;-69
2021/12/13 09:41:38;;;;;;;23.00;16.30;;;;;;;11.98;85.26;102143.94;5023539;28;20394;-68
2021/12/13 09:44:09;;;;;;;24.83;16.50;;;;;;;12.25;84.26;102136.78;5048826;28;20424;-69
2021/12/13 09:47:14;;;;;;;22.30;15.80;;;;;;;11.90;84.85;102152.41;5043314;28;20425;-68
2021/12/13 09:49:39;;;;;;;26.93;17.33;;;;;;;12.21;84.33;102149.75;5029826;28;20421;-67
2021/12/13 09:52:11;;;;;;;30.13;17.07;;;;;;;11.84;85.27;102148.72;5035372;28;20462;-67
2021/12/13 09:55:00;;;;;;;25.33;16.90;;;;;;;12.36;83.66;102149.25;5027681;28;20258;-67
2021/12/13 09:57:48;;;;;;;23.90;16.03;;;;;;;12.16;83.62;102157.47;5024592;28;20460;-66
2021/12/13 10:00:20;;;;;;;20.50;15.97;;;;;;;12.09;83.44;102152.94;5026012;28;20433;-65
2021/12/13 10:02:51;;;;;;;20.27;15.50;;;;;;;12.18;83.51;102152.28;5027490;28;20411;-67
2021/12/13 10:05:23;;;;;;;23.40;15.83;;;;;;;12.15;83.44;102157.44;5027526;28;20440;-67
2021/12/13 10:07:56;;;;;;;22.80;14.80;;;;;;;12.37;82.51;102157.13;5025898;28;20583;-66
2021/12/13 10:10:31;;;;;;;17.30;13.40;;;;;;;12.42;82.48;102158.16;5021445;28;20848;-66
2021/12/13 10:13:03;;;;;;;18.20;14.20;;;;;;;12.20;83.28;102163.66;5019580;28;20815;-66
2021/12/13 10:15:41;;;;;;;23.00;16.00;;;;;;;12.43;82.33;102167.75;5019955;28;20393;-66
2021/12/13 10:18:11;;;;;;;18.87;13.87;;;;;;;12.27;82.68;102160.34;5020067;28;20471;-66
2021/12/13 10:20:44;;;;;;;17.63;12.83;;;;;;;12.37;81.99;102157.13;5025113;28;20520;-67
2021/12/13 10:23:13;;;;;;;17.33;13.60;;;;;;;12.51;81.63;102169.69;5039011;28;20665;-67
2021/12/13 10:25:45;;;;;;;16.73;13.37;;;;;;;12.63;81.17;102154.28;5039710;28;20421;-67
2021/12/13 10:28:15;;;;;;;17.77;12.67;;;;;;;12.20;82.83;102159.31;5039854;28;20417;-67
2021/12/13 10:30:56;;;;;;;14.97;12.03;;;;;;;12.59;81.16;102168.13;5039773;28;20409;-68
2021/12/13 10:33:23;;;;;;;17.93;12.63;;;;;;;12.47;81.65;102158.25;5039663;28;20558;-69
2021/12/13 10:35:51;;;;;;;16.47;13.00;;;;;;;12.47;81.22;102158.25;5039490;28;20454;-69
2021/12/13 10:38:30;;;;;;;13.80;11.43;;;;;;;12.71;80.25;102164.94;5039433;28;20467;-67
2021/12/13 10:40:59;;;;;;;14.70;12.30;;;;;;;12.74;79.78;102163.25;5039980;28;20795;-69
2021/12/13 10:43:28;;;;;;;14.70;12.23;;;;;;;12.78;80.11;102165.09;5041215;28;20396;-71
2021/12/13 10:45:57;;;;;;;15.70;12.10;;;;;;;13.15;78.26;102170.28;5039514;28;20441;-69
2021/12/13 10:48:26;;;;;;;16.87;11.60;;;;;;;12.98;78.64;102168.16;5040287;28;20451;-68
2021/12/13 10:51:05;;;;;;;13.70;11.53;;;;;;;13.00;78.60;102168.19;5039134;28;20465;-69
2021/12/13 10:53:31;;;;;;;13.60;11.00;;;;;;;12.93;78.40;102164.56;5039278;28;20449;-68
2021/12/13 10:56:06;;;;;;;12.13;10.70;;;;;;;13.05;77.92;102160.47;5039069;28;20427;-68
2021/12/13 10:58:35;;;;;;;14.00;11.30;;;;;;;12.94;78.49;102165.47;5039043;28;20464;-69
2021/12/13 11:01:07;;;;;;;11.30;10.10;;;;;;;12.46;79.08;102161.69;5038994;28;20471;-68
2021/12/13 11:03:34;;;;;;;12.90;10.80;;;;;;;12.82;78.62;102159.94;5038935;28;20392;-68
2021/12/13 11:06:00;;;;;;;13.63;10.17;;;;;;;12.61;79.60;102159.47;5039048;28;20807;-68
2021/12/13 11:08:27;;;;;;;12.50;9.60;;;;;;;12.38;79.16;102164.16;5039190;28;20384;-69
2021/12/13 11:11:00;;;;;;;12.27;9.57;;;;;;;12.52;79.28;102161.00;5039002;28;20162;-68
2021/12/13 11:13:30;;;;;;;10.90;9.50;;;;;;;13.01;77.56;102156.00;5038858;28;20449;-67
2021/12/13 11:15:59;;;;;;;13.27;9.90;;;;;;;13.05;77.47;102150.00;5038678;28;20427;-66
2021/12/13 11:18:28;;;;;;;12.17;9.40;;;;;;;12.98;77.92;102151.59;5038664;28;20502;-68
2021/12/13 11:20:57;;;;;;;11.20;9.20;;;;;;;12.68;77.66;102147.44;5038755;28;20815;-69
2021/12/13 11:23:22;;;;;;;11.47;9.93;;;;;;;12.60;78.62;102148.97;5038457;28;20746;-68
2021/12/13 11:25:52;;;;;;;10.97;9.53;;;;;;;12.88;78.10;102152.22;5038876;28;20413;-68
2021/12/13 11:28:19;;;;;;;12.67;10.87;;;;;;;12.34;79.11;102149.22;5038642;28;20465;-69
2021/12/13 11:30:46;;;;;;;12.97;10.67;;;;;;;12.28;80.14;102149.06;5038635;28;20451;-69
2021/12/13 11:33:20;;;;;;;14.10;10.43;;;;;;;12.42;79.31;102150.28;5028401;28;20437;-69
2021/12/13 11:36:07;;;;;;;16.80;12.50;;;;;;;12.25;79.61;102144.63;5038198;28;20435;-68
2021/12/13 11:39:03;;;;;;;14.00;11.77;;;;;;;12.29;79.97;102140.38;5026058;28;20469;-67
2021/12/13 11:41:56;;;;;;;13.23;11.83;;;;;;;12.29;79.12;102146.47;5019868;28;20426;-66